sensor_id;sensor_type;location;lat;lon;timestamp;pressure;altitude;pressure_sealevel;temperature;humidity
20860;BME280;10590;48.154;11.514;2022-12-07T00:01:28;95594.66;;;2.10;100.00
20860;BME280;10590;48.154;11.514;2022-12-07T00:06:30;95589.91;;;1.97;100.00
20860;BME280;10590;48.154;11.514;2022-12-07T00:11:33;95586.66;;;2.20;100.00
20860;BME280;10590;48.154;11.514;2022-12-07T00:16:36;95579.78;;;1.99;100.00
20860;BME280;10590;48.154;11.514;2022-12-07T00:21:38;95580.00;;;2.18;100.00
20860;BME280;10590;48.154;11.514;2022-12-07T00:26:41;95573.41;;;2.00;100.00
20860;BME280;10590;48.154;11.514;2022-12-07T00:31:46;95571.31;;;1.87;100.00
20860;BME280;10590;48.154;11.514;2022-12-07T00:36:48;95568.94;;;1.85;100.00
20860;BME280;10590;48.154;11.514;2022-12-07T00:41:50;95568.91;;;2.01;100.00
20860;BME280;10590;48.154;11.514;2022-12-07T00:46:53;95571.31;;;1.87;100.00
20860;BME280;10590;48.154;11.514;2022-12-07T00:51:56;95572.66;;;1.89;100.00
20860;BME280;10590;48.154;11.514;2022-12-07T00:56:58;95573.16;;;2.02;100.00
20860;BME280;10590;48.154;11.514;2022-12-07T01:02:01;95575.56;;;1.88;100.00
20860;BME280;10590;48.154;11.514;2022-12-07T01:07:03;95567.31;;;1.84;100.00
20860;BME280;10590;48.154;11.514;2022-12-07T01:12:05;95567.06;;;1.86;100.00
20860;BME280;10590;48.154;11.514;2022-12-07T01:17:08;95565.97;;;1.92;100.00
20860;BME280;10590;48.154;11.514;2022-12-07T01:22:10;95572.94;;;1.78;100.00
20860;BME280;10590;48.154;11.514;2022-12-07T01:27:12;95566.53;;;1.68;100.00
20860;BME280;10590;48.154;11.514;2022-12-07T01:32:15;95571.88;;;1.63;100.00
20860;BME280;10590;48.154;11.514;2022-12-07T01:37:19;95577.69;;;1.86;100.00
20860;BME280;10590;48.154;11.514;2022-12-07T01:42:21;95572.94;;;1.78;100.00
20860;BME280;10590;48.154;11.514;2022-12-07T01:47:24;95571.09;;;1.58;100.00
20860;BME280;10590;48.154;11.514;2022-12-07T01:52:31;95559.88;;;1.91;100.00
20860;BME280;10590;48.154;11.514;2022-12-07T01:57:38;95563.34;;;1.87;100.00
20860;BME280;10590;48.154;11.514;2022-12-07T02:02:45;95562.31;;;1.62;100.00
20860;BME280;10590;48.154;11.514;2022-12-07T02:07:50;95572.91;;;1.72;100.00
20860;BME280;10590;48.154;11.514;2022-12-07T02:12:58;95560.97;;;1.85;100.00
20860;BME280;10590;48.154;11.514;2022-12-07T02:18:10;95560.97;;;1.65;100.00
20860;BME280;10590;48.154;11.514;2022-12-07T02:23:48;95550.88;;;1.77;100.00
20860;BME280;10590;48.154;11.514;2022-12-07T02:29:10;95545.53;;;1.87;100.00
20860;BME280;10590;48.154;11.514;2022-12-07T02:34:20;95547.66;;;1.90;100.00
20860;BME280;10590;48.154;11.514;2022-12-07T02:39:30;95549.78;;;1.83;100.00
20860;BME280;10590;48.154;11.514;2022-12-07T02:44:36;95546.88;;;1.85;100.00
20860;BME280;10590;48.154;11.514;2022-12-07T02:49:39;95544.78;;;1.61;100.00
20860;BME280;10590;48.154;11.514;2022-12-07T02:54:41;95542.09;;;1.71;100.00
20860;BME280;10590;48.154;11.514;2022-12-07T02:59:53;95544.47;;;1.83;100.00
20860;BME280;10590;48.154;11.514;2022-12-07T03:05:13;95535.44;;;1.84;100.00
20860;BME280;10590;48.154;11.514;2022-12-07T03:10:24;95543.41;;;1.89;100.00
20860;BME280;10590;48.154;11.514;2022-12-07T03:15:33;95538.91;;;1.64;100.00
20860;BME280;10590;48.154;11.514;2022-12-07T03:20:38;95539.47;;;1.66;100.00
20860;BME280;10590;48.154;11.514;2022-12-07T03:25:45;95535.75;;;1.67;100.00
20860;BME280;10590;48.154;11.514;2022-12-07T03:30:55;95543.41;;;1.79;100.00
20860;BME280;10590;48.154;11.514;2022-12-07T03:36:01;95539.44;;;1.82;100.00
20860;BME280;10590;48.154;11.514;2022-12-07T03:41:10;95538.09;;;1.79;100.00
20860;BME280;10590;48.154;11.514;2022-12-07T03:46:20;95532.53;;;1.86;100.00
20860;BME280;10590;48.154;11.514;2022-12-07T03:51:27;95533.31;;;1.76;100.00
20860;BME280;10590;48.154;11.514;2022-12-07T03:56:31;95529.34;;;1.68;100.00
20860;BME280;10590;48.154;11.514;2022-12-07T04:01:35;95525.91;;;1.78;100.00
20860;BME280;10590;48.154;11.514;2022-12-07T04:06:37;95519.50;;;1.79;100.00
20860;BME280;10590;48.154;11.514;2022-12-07T04:11:38;95525.13;;;1.67;100.00
20860;BME280;10590;48.154;11.514;2022-12-07T04:16:41;95523.53;;;1.51;100.00
20860;BME280;10590;48.154;11.514;2022-12-07T04:21:46;95520.81;;;1.92;100.00
20860;BME280;10590;48.154;11.514;2022-12-07T04:26:48;95528.28;;;1.75;100.00
20860;BME280;10590;48.154;11.514;2022-12-07T04:31:52;95536.00;;;1.61;100.00
20860;BME280;10590;48.154;11.514;2022-12-07T04:37:00;95535.75;;;1.62;100.00
20860;BME280;10590;48.154;11.514;2022-12-07T04:42:02;95531.50;;;1.61;100.00
20860;BME280;10590;48.154;11.514;2022-12-07T04:47:06;95519.28;;;1.55;100.00
20860;BME280;10590;48.154;11.514;2022-12-07T04:52:10;95512.94;;;1.36;100.00
20860;BME280;10590;48.154;11.514;2022-12-07T04:57:11;95520.38;;;1.34;100.00
20860;BME280;10590;48.154;11.514;2022-12-07T05:02:15;95518.50;;;1.29;100.00
20860;BME280;10590;48.154;11.514;2022-12-07T05:07:16;95516.13;;;1.07;100.00
20860;BME280;10590;48.154;11.514;2022-12-07T05:12:18;95519.56;;;1.28;100.00
20860;BME280;10590;48.154;11.514;2022-12-07T05:17:21;95520.91;;;1.20;100.00
20860;BME280;10590;48.154;11.514;2022-12-07T05:22:24;95525.69;;;1.08;100.00
20860;BME280;10590;48.154;11.514;2022-12-07T05:27:28;95521.72;;;1.26;100.00
20860;BME280;10590;48.154;11.514;2022-12-07T05:32:31;95515.06;;;1.18;100.00
20860;BME280;10590;48.154;11.514;2022-12-07T05:37:33;95524.88;;;1.03;100.00
20860;BME280;10590;48.154;11.514;2022-12-07T05:42:35;95528.59;;;1.07;100.00
20860;BME280;10590;48.154;11.514;2022-12-07T05:47:38;95518.25;;;1.05;100.00
20860;BME280;10590;48.154;11.514;2022-12-07T05:52:40;95527.53;;;1.03;100.00
20860;BME280;10590;48.154;11.514;2022-12-07T05:57:41;95521.44;;;1.17;100.00
20860;BME280;10590;48.154;11.514;2022-12-07T06:03:09;95525.41;;;1.10;100.00
20860;BME280;10590;48.154;11.514;2022-12-07T06:08:10;95524.88;;;1.03;100.00
20860;BME280;10590;48.154;11.514;2022-12-07T06:13:12;95529.94;;;1.19;100.00
20860;BME280;10590;48.154;11.514;2022-12-07T06:18:15;95534.44;;;1.24;100.00
20860;BME280;10590;48.154;11.514;2022-12-07T06:23:17;95541.34;;;1.25;100.00
20860;BME280;10590;48.154;11.514;2022-12-07T06:28:41;95541.88;;;1.27;100.00
20860;BME280;10590;48.154;11.514;2022-12-07T06:33:47;95546.38;;;1.32;100.00
20860;BME280;10590;48.154;11.514;2022-12-07T06:38:52;95545.06;;;1.34;100.00
20860;BME280;10590;48.154;11.514;2022-12-07T06:43:53;95548.53;;;1.35;100.00
20860;BME280;10590;48.154;11.514;2022-12-07T06:48:56;95542.69;;;1.22;100.00
20860;BME280;10590;48.154;11.514;2022-12-07T06:53:58;95549.81;;;1.37;100.00
20860;BME280;10590;48.154;11.514;2022-12-07T06:59:00;95552.75;;;1.26;100.00
20860;BME280;10590;48.154;11.514;2022-12-07T07:04:04;95559.69;;;1.42;100.00
20860;BME280;10590;48.154;11.514;2022-12-07T07:09:06;95552.19;;;1.90;100.00
20860;BME280;10590;48.154;11.514;2022-12-07T07:14:07;95560.13;;;1.95;100.00
20860;BME280;10590;48.154;11.514;2022-12-07T07:19:10;95560.88;;;2.21;100.00
20860;BME280;10590;48.154;11.514;2022-12-07T07:24:12;95549.00;;;1.78;100.00
20860;BME280;10590;48.154;11.514;2022-12-07T07:29:13;95559.13;;;1.60;100.00
20860;BME280;10590;48.154;11.514;2022-12-07T07:34:16;95569.22;;;1.63;100.00
20860;BME280;10590;48.154;11.514;2022-12-07T07:39:18;95570.81;;;1.69;100.00
20860;BME280;10590;48.154;11.514;2022-12-07T07:44:19;95567.63;;;1.62;100.00
20860;BME280;10590;48.154;11.514;2022-12-07T07:49:23;95576.13;;;1.49;100.00
20860;BME280;10590;48.154;11.514;2022-12-07T07:54:24;95569.50;;;1.26;100.00
20860;BME280;10590;48.154;11.514;2022-12-07T07:59:26;95572.94;;;1.32;100.00
20860;BME280;10590;48.154;11.514;2022-12-07T08:04:29;95572.41;;;1.50;100.00
20860;BME280;10590;48.154;11.514;2022-12-07T08:09:32;95574.00;;;1.51;100.00
20860;BME280;10590;48.154;11.514;2022-12-07T08:14:34;95564.44;;;1.35;100.00
20860;BME280;10590;48.154;11.514;2022-12-07T08:19:37;95580.38;;;1.55;100.00
20860;BME280;10590;48.154;11.514;2022-12-07T08:24:38;95586.22;;;1.42;100.00
20860;BME280;10590;48.154;11.514;2022-12-07T08:29:40;95583.81;;;1.66;100.00
20860;BME280;10590;48.154;11.514;2022-12-07T08:34:43;95586.47;;;1.66;100.00
20860;BME280;10590;48.154;11.514;2022-12-07T08:39:45;95584.34;;;1.78;100.00
20860;BME280;10590;48.154;11.514;2022-12-07T08:44:47;95581.69;;;1.73;100.00
20860;BME280;10590;48.154;11.514;2022-12-07T08:49:51;95584.31;;;1.99;100.00
20860;BME280;10590;48.154;11.514;2022-12-07T08:54:54;95589.03;;;2.32;100.00
20860;BME280;10590;48.154;11.514;2022-12-07T08:59:55;95586.97;;;1.93;100.00
20860;BME280;10590;48.154;11.514;2022-12-07T09:04:58;95583.53;;;1.88;100.00
20860;BME280;10590;48.154;11.514;2022-12-07T09:10:01;95589.34;;;2.05;100.00
20860;BME280;10590;48.154;11.514;2022-12-07T09:15:03;95580.78;;;2.29;100.00
20860;BME280;10590;48.154;11.514;2022-12-07T09:20:07;95572.00;;;2.23;100.00
20860;BME280;10590;48.154;11.514;2022-12-07T09:25:09;95583.84;;;2.61;100.00
20860;BME280;10590;48.154;11.514;2022-12-07T09:30:11;95576.09;;;2.70;100.00
20860;BME280;10590;48.154;11.514;2022-12-07T09:35:28;95582.16;;;2.81;100.00
20860;BME280;10590;48.154;11.514;2022-12-07T09:40:30;95580.81;;;2.83;100.00
20860;BME280;10590;48.154;11.514;2022-12-07T09:45:35;95567.34;;;2.64;100.00
20860;BME280;10590;48.154;11.514;2022-12-07T09:50:39;95573.91;;;3.27;100.00
20860;BME280;10590;48.154;11.514;2022-12-07T09:55:42;95569.38;;;3.22;100.00
20860;BME280;10590;48.154;11.514;2022-12-07T10:00:44;95568.78;;;3.35;100.00
20860;BME280;10590;48.154;11.514;2022-12-07T10:05:49;95566.03;;;3.06;100.00
20860;BME280;10590;48.154;11.514;2022-12-07T10:10:53;95547.59;;;3.20;100.00
20860;BME280;10590;48.154;11.514;2022-12-07T10:15:57;95557.28;;;3.40;100.00
20860;BME280;10590;48.154;11.514;2022-12-07T10:21:12;95553.78;;;4.03;95.27
20860;BME280;10590;48.154;11.514;2022-12-07T10:26:26;95548.75;;;3.72;95.68
20860;BME280;10590;48.154;11.514;2022-12-07T10:31:29;95548.63;;;3.58;95.80
20860;BME280;10590;48.154;11.514;2022-12-07T10:36:36;95544.69;;;3.80;95.85
20860;BME280;10590;48.154;11.514;2022-12-07T10:41:53;95545.59;;;3.65;92.34
20860;BME280;10590;48.154;11.514;2022-12-07T10:47:09;95540.81;;;4.63;92.59
20860;BME280;10590;48.154;11.514;2022-12-07T10:52:28;95524.06;;;5.00;80.90
20860;BME280;10590;48.154;11.514;2022-12-07T10:57:40;95525.91;;;4.62;79.85
20860;BME280;10590;48.154;11.514;2022-12-07T11:03:21;95513.81;;;5.07;80.46
20860;BME280;10590;48.154;11.514;2022-12-07T11:08:39;95506.94;;;5.01;82.79
20860;BME280;10590;48.154;11.514;2022-12-07T11:13:48;95503.13;;;5.07;79.69
20860;BME280;10590;48.154;11.514;2022-12-07T11:19:03;95500.69;;;4.30;76.22
20860;BME280;10590;48.154;11.514;2022-12-07T11:24:14;95494.47;;;4.97;78.41
20860;BME280;10590;48.154;11.514;2022-12-07T11:29:33;95483.88;;;5.57;74.46
20860;BME280;10590;48.154;11.514;2022-12-07T11:34:44;95487.88;;;5.27;76.06
20860;BME280;10590;48.154;11.514;2022-12-07T11:39:55;95481.69;;;5.26;74.23
20860;BME280;10590;48.154;11.514;2022-12-07T11:45:02;95471.31;;;5.25;75.04
20860;BME280;10590;48.154;11.514;2022-12-07T11:50:22;95468.13;;;4.90;73.24
20860;BME280;10590;48.154;11.514;2022-12-07T11:55:32;95468.75;;;4.25;73.00
20860;BME280;10590;48.154;11.514;2022-12-07T12:00:40;95471.44;;;4.01;74.05
20860;BME280;10590;48.154;11.514;2022-12-07T12:05:42;95463.13;;;4.27;74.65
20860;BME280;10590;48.154;11.514;2022-12-07T12:10:54;95457.91;;;4.16;75.67
20860;BME280;10590;48.154;11.514;2022-12-07T12:16:08;95438.78;;;4.52;73.96
20860;BME280;10590;48.154;11.514;2022-12-07T12:21:16;95445.97;;;4.33;75.04
20860;BME280;10590;48.154;11.514;2022-12-07T12:26:21;95433.91;;;3.74;76.67
20860;BME280;10590;48.154;11.514;2022-12-07T12:31:35;95437.34;;;3.74;77.59
20860;BME280;10590;48.154;11.514;2022-12-07T12:36:45;95438.84;;;3.56;78.07
20860;BME280;10590;48.154;11.514;2022-12-07T12:41:57;95446.69;;;3.48;78.84
20860;BME280;10590;48.154;11.514;2022-12-07T12:47:41;95442.34;;;3.28;82.42
20860;BME280;10590;48.154;11.514;2022-12-07T12:53:02;95437.38;;;3.45;83.59
20860;BME280;10590;48.154;11.514;2022-12-07T12:58:35;95435.09;;;3.57;81.86
20860;BME280;10590;48.154;11.514;2022-12-07T13:03:37;95436.19;;;3.56;82.99
20860;BME280;10590;48.154;11.514;2022-12-07T13:08:40;95432.06;;;3.69;79.42
20860;BME280;10590;48.154;11.514;2022-12-07T13:13:46;95436.16;;;3.85;80.30
20860;BME280;10590;48.154;11.514;2022-12-07T13:18:47;95426.44;;;3.94;81.83
20860;BME280;10590;48.154;11.514;2022-12-07T13:23:54;95428.72;;;3.82;81.70
20860;BME280;10590;48.154;11.514;2022-12-07T13:29:09;95420.25;;;3.99;80.63
20860;BME280;10590;48.154;11.514;2022-12-07T13:34:29;95417.09;;;3.97;80.91
20860;BME280;10590;48.154;11.514;2022-12-07T13:39:33;95423.56;;;3.91;82.90
20860;BME280;10590;48.154;11.514;2022-12-07T13:44:40;95413.28;;;3.79;81.73
20860;BME280;10590;48.154;11.514;2022-12-07T13:49:47;95422.88;;;3.56;83.45
20860;BME280;10590;48.154;11.514;2022-12-07T13:54:56;95409.22;;;3.39;82.66
20860;BME280;10590;48.154;11.514;2022-12-07T13:59:59;95415.22;;;4.16;80.05
20860;BME280;10590;48.154;11.514;2022-12-07T14:05:10;95399.88;;;4.08;78.33
20860;BME280;10590;48.154;11.514;2022-12-07T14:10:24;95404.47;;;4.03;80.52
20860;BME280;10590;48.154;11.514;2022-12-07T14:15:29;95404.63;;;3.68;80.06
20860;BME280;10590;48.154;11.514;2022-12-07T14:20:33;95392.69;;;3.37;76.63
20860;BME280;10590;48.154;11.514;2022-12-07T14:25:44;95396.28;;;3.27;74.44
20860;BME280;10590;48.154;11.514;2022-12-07T14:30:47;95392.34;;;3.19;72.04
20860;BME280;10590;48.154;11.514;2022-12-07T14:35:49;95398.75;;;3.18;73.45
20860;BME280;10590;48.154;11.514;2022-12-07T14:40:55;95397.25;;;3.07;77.58
20860;BME280;10590;48.154;11.514;2022-12-07T14:46:20;95401.69;;;3.17;76.82
20860;BME280;10590;48.154;11.514;2022-12-07T14:51:22;95400.78;;;3.03;77.80
20860;BME280;10590;48.154;11.514;2022-12-07T14:56:24;95397.66;;;2.90;79.13
20860;BME280;10590;48.154;11.514;2022-12-07T15:01:27;95394.81;;;2.82;80.71
20860;BME280;10590;48.154;11.514;2022-12-07T15:06:28;95396.59;;;2.91;80.65
20860;BME280;10590;48.154;11.514;2022-12-07T15:11:30;95387.72;;;2.72;82.85
20860;BME280;10590;48.154;11.514;2022-12-07T15:16:34;95397.81;;;2.70;85.01
20860;BME280;10590;48.154;11.514;2022-12-07T15:21:35;95394.31;;;2.75;86.50
20860;BME280;10590;48.154;11.514;2022-12-07T15:26:37;95389.72;;;2.85;86.79
20860;BME280;10590;48.154;11.514;2022-12-07T15:31:40;95397.56;;;2.72;89.38
20860;BME280;10590;48.154;11.514;2022-12-07T15:36:42;95405.88;;;2.94;88.48
20860;BME280;10590;48.154;11.514;2022-12-07T15:41:44;95398.72;;;2.60;90.77
20860;BME280;10590;48.154;11.514;2022-12-07T15:46:47;95400.56;;;2.60;91.57
20860;BME280;10590;48.154;11.514;2022-12-07T15:51:48;95404.72;;;2.32;95.33
20860;BME280;10590;48.154;11.514;2022-12-07T15:56:50;95393.88;;;2.23;96.44
20860;BME280;10590;48.154;11.514;2022-12-07T16:01:54;95394.31;;;1.91;96.82
20860;BME280;10590;48.154;11.514;2022-12-07T16:06:55;95392.22;;;1.93;97.51
20860;BME280;10590;48.154;11.514;2022-12-07T16:11:57;95391.38;;;1.12;100.00
20860;BME280;10590;48.154;11.514;2022-12-07T16:17:01;95397.25;;;1.14;100.00
20860;BME280;10590;48.154;11.514;2022-12-07T16:22:05;95394.81;;;1.23;100.00
20860;BME280;10590;48.154;11.514;2022-12-07T16:27:07;95388.22;;;0.90;100.00
20860;BME280;10590;48.154;11.514;2022-12-07T16:32:09;95384.69;;;1.45;100.00
20860;BME280;10590;48.154;11.514;2022-12-07T16:37:11;95383.09;;;1.39;100.00
20860;BME280;10590;48.154;11.514;2022-12-07T16:42:12;95381.97;;;1.56;100.00
20860;BME280;10590;48.154;11.514;2022-12-07T16:47:16;95383.13;;;1.34;100.00
20860;BME280;10590;48.154;11.514;2022-12-07T16:52:17;95378.38;;;1.06;100.00
20860;BME280;10590;48.154;11.514;2022-12-07T16:57:19;95376.06;;;0.84;100.00
20860;BME280;10590;48.154;11.514;2022-12-07T17:02:23;95373.84;;;1.21;100.00
20860;BME280;10590;48.154;11.514;2022-12-07T17:07:25;95376.28;;;1.03;100.00
20860;BME280;10590;48.154;11.514;2022-12-07T17:12:26;95372.06;;;0.76;100.00
20860;BME280;10590;48.154;11.514;2022-12-07T17:17:30;95373.38;;;1.04;100.00
20860;BME280;10590;48.154;11.514;2022-12-07T17:22:33;95368.09;;;0.48;100.00
20860;BME280;10590;48.154;11.514;2022-12-07T17:27:36;95358.53;;;0.27;100.00
20860;BME280;10590;48.154;11.514;2022-12-07T17:32:39;95356.16;;;0.91;100.00
20860;BME280;10590;48.154;11.514;2022-12-07T17:37:41;95358.81;;;0.71;100.00
20860;BME280;10590;48.154;11.514;2022-12-07T17:42:42;95365.16;;;0.70;100.00
20860;BME280;10590;48.154;11.514;2022-12-07T17:47:48;95359.88;;;0.65;100.00
20860;BME280;10590;48.154;11.514;2022-12-07T17:52:50;95365.72;;;0.67;100.00
20860;BME280;10590;48.154;11.514;2022-12-07T17:58:09;95361.19;;;0.21;100.00
20860;BME280;10590;48.154;11.514;2022-12-07T18:03:12;95360.13;;;0.43;100.00
20860;BME280;10590;48.154;11.514;2022-12-07T18:08:15;95360.16;;;0.33;100.00
20860;BME280;10590;48.154;11.514;2022-12-07T18:13:17;95362.78;;;0.68;100.00
20860;BME280;10590;48.154;11.514;2022-12-07T18:18:39;95355.63;;;0.54;100.00
20860;BME280;10590;48.154;11.514;2022-12-07T18:23:42;95361.97;;;0.88;100.00
20860;BME280;10590;48.154;11.514;2022-12-07T18:28:44;95356.66;;;0.98;100.00
20860;BME280;10590;48.154;11.514;2022-12-07T18:33:47;95370.41;;;1.21;100.00
20860;BME280;10590;48.154;11.514;2022-12-07T18:38:50;95361.69;;;1.05;100.00
20860;BME280;10590;48.154;11.514;2022-12-07T18:43:55;95351.59;;;1.07;100.00
20860;BME280;10590;48.154;11.514;2022-12-07T18:48:58;95356.38;;;1.10;100.00
20860;BME280;10590;48.154;11.514;2022-12-07T18:54:00;95361.13;;;1.13;100.00
20860;BME280;10590;48.154;11.514;2022-12-07T18:59:04;95359.78;;;1.21;100.00
20860;BME280;10590;48.154;11.514;2022-12-07T19:04:24;95352.03;;;1.40;100.00
20860;BME280;10590;48.154;11.514;2022-12-07T19:09:27;95355.84;;;1.08;100.00
20860;BME280;10590;48.154;11.514;2022-12-07T19:14:30;95354.19;;;1.33;100.00
20860;BME280;10590;48.154;11.514;2022-12-07T19:19:35;95346.50;;;1.21;100.00
20860;BME280;10590;48.154;11.514;2022-12-07T19:24:37;95337.56;;;0.96;100.00
20860;BME280;10590;48.154;11.514;2022-12-07T19:29:39;95341.56;;;0.84;100.00
20860;BME280;10590;48.154;11.514;2022-12-07T19:34:43;95340.53;;;0.54;100.00
20860;BME280;10590;48.154;11.514;2022-12-07T19:39:46;95347.94;;;0.67;100.00
20860;BME280;10590;48.154;11.514;2022-12-07T19:44:51;95335.22;;;0.29;100.00
20860;BME280;10590;48.154;11.514;2022-12-07T19:49:54;95329.09;;;-0.03;100.00
20860;BME280;10590;48.154;11.514;2022-12-07T19:54:55;95325.63;;;-0.08;100.00
20860;BME280;10590;48.154;11.514;2022-12-07T19:59:57;95324.06;;;0.06;100.00
20860;BME280;10590;48.154;11.514;2022-12-07T20:05:01;95311.63;;;0.37;100.00
20860;BME280;10590;48.154;11.514;2022-12-07T20:10:03;95312.91;;;0.81;100.00
20860;BME280;10590;48.154;11.514;2022-12-07T20:15:05;95305.16;;;1.05;100.00
20860;BME280;10590;48.154;11.514;2022-12-07T20:20:09;95298.53;;;1.07;100.00
20860;BME280;10590;48.154;11.514;2022-12-07T20:25:11;95299.84;;;1.05;100.00
20860;BME280;10590;48.154;11.514;2022-12-07T20:30:14;95298.34;;;0.73;100.00
20860;BME280;10590;48.154;11.514;2022-12-07T20:35:17;95301.81;;;0.63;100.00
20860;BME280;10590;48.154;11.514;2022-12-07T20:40:19;95308.69;;;0.80;100.00
20860;BME280;10590;48.154;11.514;2022-12-07T20:45:20;95296.44;;;0.89;100.00
20860;BME280;10590;48.154;11.514;2022-12-07T20:50:23;95299.06;;;1.04;100.00
20860;BME280;10590;48.154;11.514;2022-12-07T20:55:25;95303.31;;;1.05;100.00
20860;BME280;10590;48.154;11.514;2022-12-07T21:00:27;95301.09;;;1.33;100.00
20860;BME280;10590;48.154;11.514;2022-12-07T21:05:30;95305.66;;;1.22;100.00
20860;BME280;10590;48.154;11.514;2022-12-07T21:10:34;95292.06;;;1.34;100.00
20860;BME280;10590;48.154;11.514;2022-12-07T21:15:36;95295.56;;;1.19;100.00
20860;BME280;10590;48.154;11.514;2022-12-07T21:20:40;95292.34;;;1.27;100.00
20860;BME280;10590;48.154;11.514;2022-12-07T21:25:41;95293.44;;;1.26;100.00
20860;BME280;10590;48.154;11.514;2022-12-07T21:30:43;95289.53;;;1.03;100.00
20860;BME280;10590;48.154;11.514;2022-12-07T21:35:46;95285.19;;;1.28;100.00
20860;BME280;10590;48.154;11.514;2022-12-07T21:40:48;95275.78;;;0.81;100.00
20860;BME280;10590;48.154;11.514;2022-12-07T21:45:50;95270.34;;;1.27;100.00
20860;BME280;10590;48.154;11.514;2022-12-07T21:50:53;95275.09;;;1.25;100.00
20860;BME280;10590;48.154;11.514;2022-12-07T21:55:55;95255.50;;;1.15;100.00
20860;BME280;10590;48.154;11.514;2022-12-07T22:00:57;95261.00;;;1.34;100.00
20860;BME280;10590;48.154;11.514;2022-12-07T22:06:00;95266.56;;;1.38;100.00
20860;BME280;10590;48.154;11.514;2022-12-07T22:11:02;95263.13;;;1.32;100.00
20860;BME280;10590;48.154;11.514;2022-12-07T22:16:05;95257.75;;;1.47;100.00
20860;BME280;10590;48.154;11.514;2022-12-07T22:21:09;95248.31;;;1.21;100.00
20860;BME280;10590;48.154;11.514;2022-12-07T22:26:16;95255.66;;;1.39;100.00
20860;BME280;10590;48.154;11.514;2022-12-07T22:31:19;95246.38;;;1.37;100.00
20860;BME280;10590;48.154;11.514;2022-12-07T22:36:22;95244.22;;;1.44;100.00
20860;BME280;10590;48.154;11.514;2022-12-07T22:41:26;95243.50;;;1.28;100.00
20860;BME280;10590;48.154;11.514;2022-12-07T22:46:30;95247.63;;;0.90;100.00
20860;BME280;10590;48.154;11.514;2022-12-07T22:51:35;95251.53;;;1.13;100.00
20860;BME280;10590;48.154;11.514;2022-12-07T22:56:40;95238.88;;;0.89;100.00
20860;BME280;10590;48.154;11.514;2022-12-07T23:01:42;95234.22;;;1.26;100.00
20860;BME280;10590;48.154;11.514;2022-12-07T23:06:46;95231.31;;;1.27;100.00
20860;BME280;10590;48.154;11.514;2022-12-07T23:11:47;95229.06;;;1.50;100.00
20860;BME280;10590;48.154;11.514;2022-12-07T23:17:07;95222.72;;;1.40;100.00
20860;BME280;10590;48.154;11.514;2022-12-07T23:22:10;95218.25;;;1.36;100.00
20860;BME280;10590;48.154;11.514;2022-12-07T23:27:12;95216.47;;;1.26;100.00
20860;BME280;10590;48.154;11.514;2022-12-07T23:32:14;95207.38;;;1.32;100.00
20860;BME280;10590;48.154;11.514;2022-12-07T23:37:17;95202.53;;;0.95;100.00
20860;BME280;10590;48.154;11.514;2022-12-07T23:42:19;95191.84;;;1.05;100.00
20860;BME280;10590;48.154;11.514;2022-12-07T23:47:22;95189.25;;;1.00;100.00
20860;BME280;10590;48.154;11.514;2022-12-07T23:52:25;95188.28;;;1.30;100.00
20860;BME280;10590;48.154;11.514;2022-12-07T23:57:28;95178.41;;;0.91;100.00
